createdAt,value
2018-02-01T00:04:32.823Z,4.50
2018-02-01T00:09:36.649Z,4.60
2018-02-01T00:14:40.475Z,4.60
2018-02-01T00:19:44.725Z,4.60
2018-02-01T00:24:47.792Z,4.70
2018-02-01T00:29:51.629Z,4.70
2018-02-01T00:40:07.382Z,4.90
2018-02-01T00:45:10.445Z,4.80
2018-02-01T00:50:15.003Z,4.80
2018-02-01T01:00:22.478Z,4.70
2018-02-01T01:05:26.302Z,4.60
2018-02-01T01:10:30.870Z,4.60
2018-02-01T01:15:33.934Z,4.40
2018-02-01T01:25:41.402Z,4.20
2018-02-01T01:30:45.226Z,3.90
2018-02-01T01:35:48.669Z,3.80
2018-02-01T01:40:51.733Z,3.80
2018-02-01T01:46:10.206Z,3.70
2018-02-01T01:51:13.259Z,3.70
2018-02-01T01:56:17.821Z,3.60
2018-02-01T02:01:21.647Z,3.60
2018-02-01T02:06:24.713Z,3.60
2018-02-01T02:11:27.774Z,3.50
2018-02-01T02:16:31.974Z,3.40
2018-02-01T02:21:35.026Z,3.40
2018-02-01T02:26:38.858Z,3.40
2018-02-01T02:31:42.318Z,3.40
2018-02-01T02:36:45.781Z,3.40
2018-02-01T02:41:49.606Z,3.20
2018-02-01T02:46:53.071Z,3.20
2018-02-01T02:51:56.898Z,3.10
2018-02-01T02:57:00.369Z,3.10
2018-02-01T03:07:08.341Z,2.90
2018-02-01T03:12:11.398Z,2.90
2018-02-01T03:22:20.415Z,2.90
2018-02-01T03:27:24.030Z,2.80
2018-02-01T03:32:27.902Z,2.90
2018-02-01T03:37:31.461Z,2.90
2018-02-01T03:42:34.994Z,2.90
2018-02-01T03:47:39.012Z,2.80
2018-02-01T03:52:47.513Z,2.70
2018-02-01T03:57:51.059Z,2.70
2018-02-01T04:02:55.355Z,2.70
2018-02-01T04:07:58.923Z,2.60
2018-02-01T04:13:06.318Z,2.60
2018-02-01T04:18:10.956Z,2.60
2018-02-01T04:23:14.856Z,2.50
2018-02-01T04:28:17.998Z,2.50
2018-02-01T04:33:21.097Z,2.50
2018-02-01T04:38:24.553Z,2.50
2018-02-01T04:53:37.603Z,2.40
2018-02-01T04:58:42.226Z,2.40
2018-02-01T05:03:45.294Z,2.40
2018-02-01T05:13:52.770Z,2.40
2018-02-01T05:18:57.347Z,2.40
2018-02-01T05:24:01.178Z,2.40
2018-02-01T05:29:04.641Z,2.30
2018-02-01T05:34:07.703Z,2.40
2018-02-01T05:39:11.155Z,2.40
2018-02-01T05:44:14.217Z,2.40
2018-02-01T05:49:17.710Z,2.30
2018-02-01T05:54:21.559Z,2.30
2018-02-01T05:59:25.014Z,2.20
2018-02-01T06:04:28.099Z,2.30
2018-02-01T06:09:31.935Z,2.30
2018-02-01T06:14:35.438Z,2.30
2018-02-01T06:19:38.931Z,2.30
2018-02-01T06:29:47.003Z,2.30
2018-02-01T06:34:50.848Z,2.30
2018-02-01T06:39:54.705Z,2.40
2018-02-01T06:44:58.551Z,2.40
2018-02-01T06:50:02.434Z,2.50
2018-02-01T07:10:18.774Z,2.50
2018-02-01T07:15:21.842Z,2.50
2018-02-01T07:20:24.916Z,2.50
2018-02-01T07:40:42.426Z,2.70
2018-02-01T07:45:46.235Z,2.70
2018-02-01T07:50:50.927Z,3.00
2018-02-01T07:55:55.151Z,3.30
2018-02-01T08:00:59.741Z,3.50
2018-02-01T08:06:03.965Z,3.80
2018-02-01T08:11:07.039Z,4.40
2018-02-01T08:31:26.043Z,4.40
2018-02-01T08:41:33.848Z,4.40
2018-02-01T08:46:36.943Z,4.50
2018-02-01T08:56:45.207Z,4.50
2018-02-01T09:11:57.135Z,4.70
2018-02-01T09:32:14.276Z,4.90
2018-02-01T09:37:18.044Z,5.00
2018-02-01T10:12:47.794Z,5.60
2018-02-01T10:17:52.367Z,5.70
2018-02-01T10:33:05.256Z,6.20
2018-02-01T10:38:08.718Z,6.50
2018-02-01T10:48:17.357Z,6.70
2018-02-01T11:03:31.403Z,6.80
2018-02-01T11:18:43.766Z,7.10
2018-02-01T11:28:51.668Z,6.80
2018-02-01T11:38:59.203Z,6.80
2018-02-01T11:54:11.535Z,6.90
2018-02-01T11:59:15.740Z,7.10
2018-02-01T12:14:27.664Z,7.20
2018-02-01T12:19:31.531Z,7.10
2018-02-01T12:24:36.107Z,7.10
2018-02-01T12:44:52.891Z,7.20
2018-02-01T12:55:01.894Z,7.10
2018-02-01T13:00:06.100Z,7.10
2018-02-01T13:10:14.387Z,6.90
2018-02-01T13:15:17.868Z,6.90
2018-02-01T13:25:26.147Z,6.70
2018-02-01T13:30:30.025Z,6.60
2018-02-01T13:35:33.082Z,6.50
2018-02-01T13:40:36.467Z,6.40
2018-02-01T13:55:48.416Z,6.40
2018-02-01T14:11:01.918Z,6.20
2018-02-01T14:21:09.840Z,6.20
2018-02-01T14:31:18.559Z,6.20
2018-02-01T14:46:30.579Z,6.30
2018-02-01T14:51:34.404Z,6.30
2018-02-01T15:06:46.395Z,5.70
2018-02-01T15:11:50.607Z,5.70
2018-02-01T15:37:12.168Z,5.60
2018-02-01T15:47:19.671Z,5.70
2018-02-01T15:52:24.250Z,5.70
2018-02-01T15:57:27.307Z,5.70
2018-02-01T16:02:30.766Z,5.60
2018-02-01T16:12:39.598Z,5.60
2018-02-01T16:17:43.803Z,5.50
2018-02-01T16:22:47.777Z,5.50
2018-02-01T16:27:51.979Z,5.50
2018-02-01T16:32:55.055Z,5.50
2018-02-01T16:43:02.549Z,5.40
2018-02-01T16:58:14.858Z,4.90
2018-02-01T17:08:23.123Z,4.60
2018-02-01T17:13:26.253Z,4.40
2018-02-01T17:23:34.374Z,4.20
2018-02-01T17:33:42.335Z,4.20
2018-02-01T17:38:46.932Z,4.30
2018-02-01T17:43:50.779Z,4.30
2018-02-01T17:53:58.928Z,4.20
2018-02-01T17:59:04.108Z,4.10
2018-02-01T18:04:08.305Z,4.00
2018-02-01T18:09:13.533Z,4.00
2018-02-01T18:14:18.103Z,3.90
2018-02-01T18:24:26.358Z,3.80
2018-02-01T18:29:29.647Z,3.80
2018-02-01T18:34:34.152Z,3.80
2018-02-01T18:49:47.585Z,3.50
2018-02-01T18:54:50.987Z,3.40
2018-02-01T18:59:55.175Z,3.30
2018-02-01T19:10:04.167Z,3.30
2018-02-01T19:15:07.847Z,3.30
2018-02-01T19:20:10.908Z,3.20
2018-02-01T19:25:15.463Z,3.20
2018-02-01T19:45:32.932Z,3.20
2018-02-01T19:55:42.263Z,3.20
2018-02-01T20:00:45.720Z,3.20
2018-02-01T20:10:54.582Z,3.20
2018-02-01T20:15:57.636Z,3.30
2018-02-01T20:21:00.734Z,3.30
2018-02-01T20:31:08.666Z,3.30
2018-02-01T20:36:13.209Z,3.30
2018-02-01T20:46:20.694Z,3.20
2018-02-01T20:51:25.269Z,3.10
2018-02-01T20:56:28.338Z,3.10
2018-02-01T21:01:32.166Z,3.00
2018-02-01T21:06:36.738Z,3.00
2018-02-01T21:11:40.951Z,2.90
2018-02-01T21:16:47.898Z,2.80
2018-02-01T21:21:50.991Z,2.80
2018-02-01T21:26:55.214Z,2.80
2018-02-01T21:37:07.470Z,2.80
2018-02-01T21:42:10.539Z,2.70
2018-02-01T21:47:14.742Z,2.70
2018-02-01T21:52:19.777Z,2.70
2018-02-01T22:02:27.274Z,2.60
2018-02-01T22:07:30.343Z,2.60
2018-02-01T22:12:33.819Z,2.60
2018-02-01T22:17:38.408Z,2.60
2018-02-01T22:22:42.625Z,2.50
2018-02-01T22:27:45.720Z,2.50
2018-02-01T22:37:54.279Z,2.70
2018-02-01T22:42:57.351Z,2.70
2018-02-01T22:48:02.311Z,2.70
2018-02-01T22:58:09.795Z,2.60
2018-02-01T23:03:14.290Z,2.60
2018-02-01T23:08:18.512Z,2.50
2018-02-01T23:13:21.785Z,2.50
2018-02-01T23:23:29.511Z,2.40
2018-02-01T23:28:32.602Z,2.40
2018-02-01T23:43:44.662Z,2.50
2018-02-01T23:48:48.127Z,2.50
2018-02-01T23:53:52.331Z,2.50
2018-02-01T23:58:55.787Z,2.50
